createdAt,value
2022-11-22T00:00:08.263Z,16.80
2022-11-22T00:01:08.417Z,17.00
2022-11-22T00:02:08.260Z,19.50
2022-11-22T00:03:08.161Z,18.80
2022-11-22T00:04:08.393Z,17.60
2022-11-22T00:05:08.172Z,19.10
2022-11-22T00:06:08.124Z,21.40
2022-11-22T00:07:08.159Z,14.60
2022-11-22T00:08:08.101Z,18.20
2022-11-22T00:09:08.317Z,17.30
2022-11-22T00:10:08.095Z,21.20
2022-11-22T00:11:08.084Z,16.70
2022-11-22T00:12:08.077Z,14.90
2022-11-22T00:13:08.050Z,16.40
2022-11-22T00:14:08.049Z,15.60
2022-11-22T00:15:08.039Z,16.90
2022-11-22T00:16:08.025Z,19.50
2022-11-22T00:17:08.039Z,16.80
2022-11-22T00:18:07.995Z,16.70
2022-11-22T00:19:07.982Z,16.10
2022-11-22T00:20:07.972Z,15.50
2022-11-22T00:21:07.961Z,15.50
2022-11-22T00:22:07.974Z,16.50
2022-11-22T00:23:07.941Z,16.30
2022-11-22T00:24:07.936Z,19.70
2022-11-22T00:25:08.101Z,14.90
2022-11-22T00:26:07.902Z,14.70
2022-11-22T00:27:07.968Z,18.10
2022-11-22T00:28:07.899Z,17.10
2022-11-22T00:29:08.025Z,17.40
2022-11-22T00:30:07.871Z,16.60
2022-11-22T00:31:07.858Z,15.10
2022-11-22T00:32:07.835Z,14.80
2022-11-22T00:33:16.401Z,15.30
2022-11-22T00:34:07.821Z,14.60
2022-11-22T00:35:07.799Z,16.30
2022-11-22T00:36:07.805Z,17.20
2022-11-22T00:37:07.771Z,12.60
2022-11-22T00:38:07.763Z,14.00
2022-11-22T00:39:07.758Z,15.10
2022-11-22T00:40:07.752Z,17.90
2022-11-22T00:41:07.755Z,15.70
2022-11-22T00:42:07.717Z,14.20
2022-11-22T00:43:07.708Z,16.70
2022-11-22T00:44:07.711Z,15.80
2022-11-22T00:45:07.714Z,14.70
2022-11-22T00:46:07.690Z,13.60
2022-11-22T00:47:07.667Z,13.70
2022-11-22T00:48:07.686Z,13.40
2022-11-22T00:49:07.650Z,18.30
2022-11-22T00:50:07.656Z,14.20
2022-11-22T00:51:07.637Z,18.50
2022-11-22T00:52:07.636Z,16.20
2022-11-22T00:53:07.631Z,15.20
2022-11-22T00:54:07.615Z,13.00
2022-11-22T00:55:07.585Z,14.40
2022-11-22T00:56:07.720Z,17.60
2022-11-22T00:57:07.582Z,13.20
2022-11-22T00:58:07.551Z,14.10
2022-11-22T00:59:07.607Z,13.80
2022-11-22T01:00:07.527Z,15.90
2022-11-22T01:01:07.583Z,12.80
2022-11-22T01:02:07.509Z,13.70
2022-11-22T01:03:07.520Z,12.10
2022-11-22T01:04:07.544Z,14.60
2022-11-22T01:05:07.483Z,15.10
2022-11-22T01:06:07.468Z,18.60
2022-11-22T01:07:07.486Z,11.50
2022-11-22T01:08:07.443Z,14.70
2022-11-22T01:09:07.493Z,14.20
2022-11-22T01:10:07.444Z,13.60
2022-11-22T01:11:07.421Z,14.10
2022-11-22T01:12:07.410Z,14.30
2022-11-22T01:13:07.388Z,13.60
2022-11-22T01:14:07.406Z,12.10
2022-11-22T01:15:07.375Z,11.60
2022-11-22T01:16:07.383Z,10.70
2022-11-22T01:17:07.345Z,13.90
2022-11-22T01:18:07.335Z,15.10
2022-11-22T01:19:07.322Z,13.70
2022-11-22T01:20:07.329Z,13.20
2022-11-22T01:21:07.296Z,11.50
2022-11-22T01:22:07.285Z,13.60
2022-11-22T01:23:07.293Z,11.10
2022-11-22T01:24:07.265Z,13.20
2022-11-22T01:25:07.271Z,13.10
2022-11-22T01:26:07.279Z,13.70
2022-11-22T01:27:07.244Z,12.00
2022-11-22T01:28:07.223Z,12.70
2022-11-22T01:29:07.209Z,13.20
2022-11-22T01:30:07.215Z,13.90
2022-11-22T01:31:07.211Z,14.20
2022-11-22T01:32:07.198Z,10.80
2022-11-22T01:33:13.686Z,10.40
2022-11-22T01:34:07.169Z,13.10
2022-11-22T01:35:07.167Z,17.00
2022-11-22T01:36:07.166Z,10.60
2022-11-22T01:37:07.146Z,12.90
2022-11-22T01:38:07.135Z,15.50
2022-11-22T01:39:07.104Z,13.10
2022-11-22T01:40:07.092Z,13.90
2022-11-22T01:41:07.119Z,16.20
2022-11-22T01:42:07.098Z,10.10
2022-11-22T01:43:07.069Z,13.40
2022-11-22T01:44:07.064Z,11.50
2022-11-22T01:45:07.038Z,13.30
2022-11-22T01:46:07.067Z,9.70
2022-11-22T01:47:07.031Z,14.80
2022-11-22T01:48:07.021Z,12.80
2022-11-22T01:49:06.989Z,12.10
2022-11-22T01:50:06.999Z,8.10
2022-11-22T01:51:07.000Z,7.70
2022-11-22T01:52:06.963Z,10.30
2022-11-22T01:53:06.950Z,11.10
2022-11-22T01:54:06.938Z,12.40
2022-11-22T01:55:06.933Z,14.10
2022-11-22T01:56:06.929Z,12.50
2022-11-22T01:57:06.945Z,11.40
2022-11-22T01:58:06.907Z,11.90
2022-11-22T01:59:06.900Z,9.30
2022-11-22T02:00:06.879Z,10.70
2022-11-22T02:01:07.042Z,9.80
2022-11-22T02:02:06.877Z,11.00
2022-11-22T02:03:06.838Z,12.30
2022-11-22T02:04:06.845Z,14.10
2022-11-22T02:05:06.853Z,9.50
2022-11-22T02:06:06.825Z,10.70
2022-11-22T02:07:06.850Z,14.00
2022-11-22T02:08:06.793Z,11.10
2022-11-22T02:09:06.794Z,10.80
2022-11-22T02:10:06.788Z,11.90
2022-11-22T02:11:06.767Z,9.50
2022-11-22T02:12:06.781Z,13.30
2022-11-22T02:13:06.733Z,11.60
2022-11-22T02:14:06.725Z,9.80
2022-11-22T02:15:06.704Z,11.10
2022-11-22T02:16:06.717Z,12.00
2022-11-22T02:17:06.717Z,9.20
2022-11-22T02:18:06.692Z,10.60
2022-11-22T02:19:06.672Z,10.30
2022-11-22T02:20:06.649Z,11.50
2022-11-22T02:21:06.657Z,9.20
2022-11-22T02:22:06.654Z,13.20
2022-11-22T02:23:06.674Z,10.80
2022-11-22T02:24:06.605Z,10.20
2022-11-22T02:25:06.632Z,9.00
2022-11-22T02:26:06.603Z,9.70
2022-11-22T02:27:07.531Z,13.10
2022-11-22T02:28:06.609Z,11.40
2022-11-22T02:29:06.576Z,11.00
2022-11-22T02:30:06.557Z,12.80
2022-11-22T02:31:06.560Z,11.70
2022-11-22T02:32:06.527Z,16.60
2022-11-22T02:33:15.031Z,12.00
2022-11-22T02:34:06.506Z,12.90
2022-11-22T02:35:06.541Z,12.50
2022-11-22T02:36:06.482Z,12.30
2022-11-22T02:37:06.461Z,11.60
2022-11-22T02:38:06.483Z,12.20
2022-11-22T02:39:06.437Z,9.30
2022-11-22T02:40:06.437Z,11.80
2022-11-22T02:41:06.471Z,12.10
2022-11-22T02:42:06.416Z,14.70
2022-11-22T02:43:06.395Z,12.40
2022-11-22T02:44:06.393Z,11.20
2022-11-22T02:45:06.374Z,10.20
2022-11-22T02:46:06.380Z,10.00
2022-11-22T02:47:06.374Z,10.70
2022-11-22T02:48:06.348Z,10.00
2022-11-22T02:49:06.344Z,8.90
2022-11-22T02:50:06.333Z,7.80
2022-11-22T02:51:06.310Z,9.20
2022-11-22T02:52:06.295Z,11.90
2022-11-22T02:53:06.308Z,8.50
2022-11-22T02:54:06.321Z,7.50
2022-11-22T02:55:06.278Z,12.40
2022-11-22T02:56:06.263Z,10.40
2022-11-22T02:57:06.259Z,11.40
2022-11-22T02:58:06.238Z,10.40
2022-11-22T02:59:06.245Z,9.90
2022-11-22T03:00:06.234Z,12.20
2022-11-22T03:01:06.289Z,10.20
2022-11-22T03:02:06.202Z,11.60
2022-11-22T03:03:06.188Z,9.80
2022-11-22T03:04:06.197Z,11.00
2022-11-22T03:05:06.162Z,11.40
2022-11-22T03:06:06.147Z,12.50
2022-11-22T03:07:06.195Z,12.50
2022-11-22T03:08:06.146Z,11.80
2022-11-22T03:09:06.124Z,9.70
2022-11-22T03:10:06.116Z,10.40
2022-11-22T03:11:06.121Z,9.70
2022-11-22T03:12:06.099Z,10.80
2022-11-22T03:13:06.123Z,9.20
2022-11-22T03:14:06.093Z,10.30
2022-11-22T03:15:06.056Z,8.70
2022-11-22T03:16:06.044Z,9.60
2022-11-22T03:17:06.041Z,9.50
2022-11-22T03:18:06.067Z,8.20
2022-11-22T03:19:06.028Z,10.50
2022-11-22T03:20:05.995Z,9.20
2022-11-22T03:21:05.985Z,8.50
2022-11-22T03:22:05.983Z,10.80
2022-11-22T03:23:05.958Z,8.60
2022-11-22T03:24:05.969Z,11.80
2022-11-22T03:25:05.939Z,7.00
2022-11-22T03:26:05.930Z,9.30
2022-11-22T03:27:05.931Z,9.00
2022-11-22T03:28:05.929Z,9.60
2022-11-22T03:29:05.920Z,11.30
2022-11-22T03:30:05.903Z,8.10
2022-11-22T03:31:05.872Z,8.00
2022-11-22T03:32:05.878Z,8.80
2022-11-22T03:33:14.406Z,8.10
2022-11-22T03:34:05.848Z,9.20
2022-11-22T03:35:05.855Z,8.80
2022-11-22T03:36:05.821Z,8.90
2022-11-22T03:37:05.817Z,8.50
2022-11-22T03:38:05.808Z,9.70
2022-11-22T03:39:05.790Z,8.30
2022-11-22T03:40:05.806Z,9.20
2022-11-22T03:41:05.769Z,12.00
2022-11-22T03:42:05.766Z,9.50
2022-11-22T03:43:05.750Z,8.10
2022-11-22T03:44:05.736Z,10.10
2022-11-22T03:45:05.743Z,13.20
2022-11-22T03:46:05.738Z,9.60
2022-11-22T03:47:05.704Z,7.20
2022-11-22T03:48:05.709Z,9.10
2022-11-22T03:49:05.683Z,8.10
2022-11-22T03:50:05.683Z,8.70
2022-11-22T03:51:05.691Z,7.40
2022-11-22T03:52:05.662Z,10.20
2022-11-22T03:53:05.640Z,8.30
2022-11-22T03:54:05.651Z,7.50
2022-11-22T03:55:05.619Z,8.20
2022-11-22T03:56:05.629Z,7.10
2022-11-22T03:57:05.602Z,10.90
2022-11-22T03:58:05.607Z,8.60
2022-11-22T03:59:05.573Z,5.60
2022-11-22T04:00:05.570Z,7.10
2022-11-22T04:01:05.622Z,7.50
2022-11-22T04:02:05.622Z,7.00
2022-11-22T04:03:05.541Z,7.60
2022-11-22T04:04:05.590Z,8.20
2022-11-22T04:05:05.536Z,10.10
2022-11-22T04:06:05.523Z,6.20
2022-11-22T04:07:05.560Z,6.40
2022-11-22T04:08:05.483Z,4.70
2022-11-22T04:09:05.525Z,6.50
2022-11-22T04:10:05.472Z,6.40
2022-11-22T04:11:05.449Z,9.60
2022-11-22T04:12:05.439Z,6.20
2022-11-22T04:13:05.441Z,8.50
2022-11-22T04:14:05.422Z,8.00
2022-11-22T04:15:05.519Z,7.60
2022-11-22T04:16:05.643Z,8.00
2022-11-22T04:17:05.457Z,7.40
2022-11-22T04:18:06.310Z,6.20
2022-11-22T04:19:06.311Z,7.20
2022-11-22T04:20:05.389Z,7.70
2022-11-22T04:21:05.531Z,5.80
2022-11-22T04:22:07.069Z,7.30
2022-11-22T04:23:05.424Z,7.70
2022-11-22T04:24:06.467Z,8.20
2022-11-22T04:25:06.436Z,5.30
2022-11-22T04:26:06.390Z,7.20
2022-11-22T04:27:05.532Z,7.90
2022-11-22T04:28:05.385Z,9.10
2022-11-22T04:29:10.624Z,9.30
2022-11-22T04:30:05.875Z,5.80
2022-11-22T04:31:06.242Z,7.70
2022-11-22T04:32:06.416Z,8.90
2022-11-22T04:33:11.741Z,8.90
2022-11-22T04:34:05.206Z,6.50
2022-11-22T04:35:05.189Z,6.50
2022-11-22T04:36:08.939Z,9.80
2022-11-22T04:37:05.207Z,7.10
2022-11-22T04:38:05.170Z,9.60
2022-11-22T04:39:05.157Z,7.30
2022-11-22T04:40:05.129Z,9.40
2022-11-22T04:41:05.153Z,6.60
2022-11-22T04:42:05.182Z,7.40
2022-11-22T04:43:05.171Z,7.20
2022-11-22T04:44:05.121Z,9.30
2022-11-22T04:45:05.133Z,9.40
2022-11-22T04:46:05.110Z,8.60
2022-11-22T04:47:05.122Z,9.70
2022-11-22T04:48:05.055Z,7.00
2022-11-22T04:49:05.054Z,10.40
2022-11-22T04:50:05.663Z,10.30
2022-11-22T04:51:05.040Z,10.80
2022-11-22T04:52:05.055Z,10.60
2022-11-22T04:53:05.014Z,10.80
2022-11-22T04:54:04.985Z,9.10
2022-11-22T04:55:04.991Z,7.60
2022-11-22T04:56:04.967Z,9.90
2022-11-22T04:57:04.985Z,9.40
2022-11-22T04:58:04.956Z,12.30
2022-11-22T04:59:04.941Z,11.60
2022-11-22T05:00:04.925Z,13.60
2022-11-22T05:01:04.962Z,13.80
2022-11-22T05:02:04.917Z,11.20
2022-11-22T05:03:04.906Z,12.00
2022-11-22T05:04:04.875Z,12.80
2022-11-22T05:05:04.868Z,9.60
2022-11-22T05:06:04.865Z,8.80
2022-11-22T05:07:04.943Z,13.00
2022-11-22T05:08:04.855Z,10.40
2022-11-22T05:09:04.831Z,9.80
2022-11-22T05:10:04.813Z,11.50
2022-11-22T05:11:04.806Z,12.70
2022-11-22T05:12:04.794Z,11.60
2022-11-22T05:13:04.844Z,10.60
2022-11-22T05:14:04.782Z,12.50
2022-11-22T05:15:04.757Z,13.60
2022-11-22T05:16:04.762Z,11.90
2022-11-22T05:17:04.751Z,11.00
2022-11-22T05:18:04.752Z,14.20
2022-11-22T05:19:04.725Z,14.90
2022-11-22T05:20:04.742Z,12.10
2022-11-22T05:21:04.698Z,9.50
2022-11-22T05:22:04.690Z,14.70
2022-11-22T05:23:04.680Z,17.70
2022-11-22T05:24:04.687Z,12.00
2022-11-22T05:25:04.662Z,15.00
2022-11-22T05:26:04.657Z,15.00
2022-11-22T05:27:04.685Z,11.90
2022-11-22T05:28:04.621Z,15.50
2022-11-22T05:29:04.638Z,14.00
2022-11-22T05:30:04.620Z,11.90
2022-11-22T05:31:04.632Z,14.00
2022-11-22T05:32:04.585Z,11.00
2022-11-22T05:33:13.076Z,15.90
2022-11-22T05:34:04.592Z,15.70
2022-11-22T05:35:04.554Z,16.40
2022-11-22T05:36:04.546Z,13.50
2022-11-22T05:37:04.573Z,15.30
2022-11-22T05:38:04.519Z,16.40
2022-11-22T05:39:04.540Z,11.70
2022-11-22T05:40:04.495Z,12.60
2022-11-22T05:41:04.505Z,10.90
2022-11-22T05:42:04.476Z,11.10
2022-11-22T05:43:04.485Z,14.70
2022-11-22T05:44:04.473Z,16.20
2022-11-22T05:45:04.459Z,15.90
2022-11-22T05:46:04.430Z,19.20
2022-11-22T05:47:04.505Z,17.20
2022-11-22T05:48:04.414Z,13.40
2022-11-22T05:49:04.415Z,16.70
2022-11-22T05:50:04.422Z,11.00
2022-11-22T05:51:04.401Z,19.70
2022-11-22T05:52:04.381Z,13.80
2022-11-22T05:53:04.369Z,20.40
2022-11-22T05:54:04.353Z,15.10
2022-11-22T05:55:04.362Z,10.70
2022-11-22T05:56:04.378Z,14.60
2022-11-22T05:57:04.337Z,16.90
2022-11-22T05:58:04.311Z,12.90
2022-11-22T05:59:04.316Z,17.90
2022-11-22T06:00:04.293Z,17.00
2022-11-22T06:01:04.313Z,19.60
2022-11-22T06:02:04.328Z,15.50
2022-11-22T06:03:04.314Z,16.00
2022-11-22T06:04:04.270Z,16.60
2022-11-22T06:05:04.236Z,16.70
2022-11-22T06:06:04.239Z,20.30
2022-11-22T06:07:09.543Z,15.60
2022-11-22T06:08:04.276Z,19.10
2022-11-22T06:09:04.210Z,11.70
2022-11-22T06:10:04.180Z,17.30
2022-11-22T06:11:04.187Z,14.10
2022-11-22T06:12:04.182Z,15.70
2022-11-22T06:13:04.203Z,15.90
2022-11-22T06:14:04.147Z,13.10
2022-11-22T06:15:04.126Z,15.30
2022-11-22T06:16:04.275Z,16.00
2022-11-22T06:17:04.114Z,15.70
2022-11-22T06:18:04.106Z,12.90
2022-11-22T06:19:04.089Z,12.10
2022-11-22T06:20:06.481Z,16.40
2022-11-22T06:21:04.088Z,15.80
2022-11-22T06:22:04.087Z,11.90
2022-11-22T06:23:04.052Z,12.90
2022-11-22T06:24:04.037Z,14.30
2022-11-22T06:25:04.038Z,15.30
2022-11-22T06:26:04.088Z,19.00
2022-11-22T06:27:04.067Z,16.70
2022-11-22T06:28:03.991Z,12.30
2022-11-22T06:29:03.987Z,13.30
2022-11-22T06:30:03.967Z,17.40
2022-11-22T06:31:03.962Z,15.90
2022-11-22T06:32:04.366Z,13.40
2022-11-22T06:33:03.948Z,13.00
2022-11-22T06:34:03.928Z,18.20
2022-11-22T06:35:03.930Z,19.10
2022-11-22T06:36:03.908Z,17.00
2022-11-22T06:37:03.925Z,19.00
2022-11-22T06:38:03.883Z,18.70
2022-11-22T06:39:04.095Z,13.40
2022-11-22T06:40:04.746Z,11.40
2022-11-22T06:41:03.867Z,17.00
2022-11-22T06:42:03.865Z,11.30
2022-11-22T06:43:03.839Z,18.10
2022-11-22T06:44:03.880Z,19.30
2022-11-22T06:45:03.813Z,19.20
2022-11-22T06:46:03.810Z,17.10
2022-11-22T06:47:03.816Z,16.60
2022-11-22T06:48:03.817Z,20.60
2022-11-22T06:49:03.775Z,17.20
2022-11-22T06:50:03.756Z,18.50
2022-11-22T06:51:03.752Z,14.80
2022-11-22T06:52:03.854Z,20.60
2022-11-22T06:53:03.761Z,14.30
2022-11-22T06:54:03.731Z,15.70
2022-11-22T06:55:07.996Z,16.60
2022-11-22T06:56:03.699Z,15.00
2022-11-22T06:57:03.690Z,15.50
2022-11-22T06:58:03.715Z,15.40
2022-11-22T06:59:03.684Z,12.90
2022-11-22T07:00:03.653Z,13.90
2022-11-22T07:01:03.843Z,9.70
2022-11-22T07:02:06.704Z,11.40
2022-11-22T07:03:03.644Z,17.20
2022-11-22T07:04:03.607Z,13.90
2022-11-22T07:05:24.616Z,15.00
2022-11-22T07:06:03.595Z,16.50
2022-11-22T07:07:03.680Z,15.10
2022-11-22T07:08:10.425Z,16.90
2022-11-22T07:09:03.574Z,13.80
2022-11-22T07:10:03.556Z,13.30
2022-11-22T07:11:03.557Z,20.00
2022-11-22T07:12:03.536Z,16.40
2022-11-22T07:13:03.580Z,13.00
2022-11-22T07:14:08.261Z,13.40
2022-11-22T07:15:03.505Z,12.80
2022-11-22T07:16:03.488Z,13.10
2022-11-22T07:17:03.499Z,14.10
2022-11-22T07:18:03.490Z,15.70
2022-11-22T07:19:03.481Z,11.90
2022-11-22T07:20:03.458Z,14.90
2022-11-22T07:21:08.002Z,16.80
2022-11-22T07:22:03.437Z,12.60
2022-11-22T07:23:03.480Z,16.40
2022-11-22T07:24:03.425Z,11.90
2022-11-22T07:25:03.393Z,16.90
2022-11-22T07:26:03.420Z,14.60
2022-11-22T07:27:03.380Z,14.20
2022-11-22T07:28:03.352Z,17.70
2022-11-22T07:29:03.366Z,19.10
2022-11-22T07:30:03.338Z,15.00
2022-11-22T07:31:03.344Z,18.40
2022-11-22T07:32:03.319Z,14.40
2022-11-22T07:33:11.845Z,17.90
2022-11-22T07:34:03.312Z,15.00
2022-11-22T07:35:03.302Z,23.00
2022-11-22T07:36:03.272Z,15.10
2022-11-22T07:37:08.727Z,12.80
2022-11-22T07:38:03.279Z,17.50
2022-11-22T07:39:03.242Z,17.50
2022-11-22T07:40:03.234Z,18.00
2022-11-22T07:41:03.218Z,19.50
2022-11-22T07:42:03.212Z,18.10
2022-11-22T07:43:03.226Z,12.40
2022-11-22T07:44:03.198Z,19.20
2022-11-22T07:45:03.185Z,14.80
2022-11-22T07:46:03.166Z,12.20
2022-11-22T07:47:03.167Z,15.10
2022-11-22T07:48:03.193Z,17.40
2022-11-22T07:49:03.149Z,15.10
2022-11-22T07:50:03.153Z,15.30
2022-11-22T07:51:03.116Z,18.60
2022-11-22T07:52:03.124Z,13.90
2022-11-22T07:53:03.103Z,12.50
2022-11-22T07:54:03.084Z,14.60
2022-11-22T07:55:03.076Z,17.30
2022-11-22T07:56:03.063Z,19.50
2022-11-22T07:57:03.054Z,18.00
2022-11-22T07:58:03.047Z,17.70
2022-11-22T07:59:03.038Z,16.40
2022-11-22T08:00:03.018Z,19.00
2022-11-22T08:01:03.125Z,15.10
2022-11-22T08:02:03.163Z,13.80
2022-11-22T08:03:03.000Z,17.60
2022-11-22T08:04:02.978Z,13.90
2022-11-22T08:05:02.966Z,17.20
2022-11-22T08:06:02.972Z,15.20
2022-11-22T08:07:03.006Z,14.40
2022-11-22T08:08:02.958Z,15.40
2022-11-22T08:09:02.945Z,20.80
2022-11-22T08:10:02.933Z,14.40
2022-11-22T08:11:02.924Z,16.20
2022-11-22T08:12:02.910Z,15.80
2022-11-22T08:13:02.890Z,13.30
2022-11-22T08:14:02.872Z,15.20
2022-11-22T08:15:02.858Z,14.50
2022-11-22T08:16:05.507Z,10.30
2022-11-22T08:17:02.846Z,17.70
2022-11-22T08:18:02.850Z,16.30
2022-11-22T08:19:02.843Z,13.40
2022-11-22T08:20:02.831Z,14.80
2022-11-22T08:21:02.807Z,11.40
2022-11-22T08:22:02.788Z,13.40
2022-11-22T08:23:02.778Z,13.20
2022-11-22T08:24:02.779Z,12.40
2022-11-22T08:25:02.792Z,11.60
2022-11-22T08:26:02.793Z,13.10
2022-11-22T08:27:03.791Z,14.10
2022-11-22T08:28:02.759Z,14.60
2022-11-22T08:29:02.780Z,14.90
2022-11-22T08:30:02.713Z,14.60
2022-11-22T08:31:02.723Z,14.40
2022-11-22T08:32:02.687Z,14.60
2022-11-22T08:33:02.671Z,13.40
2022-11-22T08:34:02.691Z,14.20
2022-11-22T08:35:02.666Z,14.20
2022-11-22T08:36:02.658Z,9.90
2022-11-22T08:37:02.625Z,16.60
2022-11-22T08:38:02.675Z,19.10
2022-11-22T08:39:02.605Z,13.90
2022-11-22T08:40:02.622Z,13.00
2022-11-22T08:41:02.596Z,16.40
2022-11-22T08:42:02.591Z,18.30
2022-11-22T08:43:02.581Z,17.90
2022-11-22T08:44:02.683Z,15.80
2022-11-22T08:45:02.563Z,14.20
2022-11-22T08:46:02.549Z,13.20
2022-11-22T08:47:02.545Z,14.80
2022-11-22T08:48:02.518Z,15.80
2022-11-22T08:49:02.505Z,13.20
2022-11-22T08:50:02.501Z,16.70
2022-11-22T08:51:02.521Z,16.40
2022-11-22T08:52:02.476Z,13.60
2022-11-22T08:53:02.504Z,10.40
2022-11-22T08:54:02.453Z,17.60
2022-11-22T08:55:02.456Z,14.30
2022-11-22T08:56:02.430Z,13.90
2022-11-22T08:57:02.438Z,10.80
2022-11-22T08:58:02.419Z,11.40
2022-11-22T08:59:02.448Z,14.80
2022-11-22T09:00:02.515Z,10.70
2022-11-22T09:01:02.472Z,16.10
2022-11-22T09:02:02.427Z,10.30
2022-11-22T09:03:02.388Z,16.60
2022-11-22T09:04:02.349Z,12.70
2022-11-22T09:05:02.346Z,8.10
2022-11-22T09:09:30.058Z,12.10
2022-11-22T09:10:02.284Z,12.10
2022-11-22T09:11:02.272Z,15.10
2022-11-22T09:12:02.256Z,12.90
2022-11-22T09:13:02.264Z,11.20
2022-11-22T09:14:02.235Z,11.20
2022-11-22T09:15:02.225Z,12.40
2022-11-22T09:16:02.214Z,13.50
2022-11-22T09:17:02.205Z,16.20
2022-11-22T09:18:02.205Z,9.10
2022-11-22T09:19:02.177Z,15.20
2022-11-22T09:20:02.176Z,16.60
2022-11-22T09:21:02.157Z,9.40
2022-11-22T09:22:02.165Z,9.80
2022-11-22T09:23:02.177Z,13.20
2022-11-22T09:24:02.150Z,11.10
2022-11-22T09:25:02.111Z,11.30
2022-11-22T09:26:02.110Z,8.20
2022-11-22T09:27:02.091Z,10.50
2022-11-22T09:28:02.156Z,11.20
2022-11-22T09:29:02.084Z,13.30
2022-11-22T09:30:02.877Z,12.00
2022-11-22T09:31:02.037Z,16.20
2022-11-22T09:32:02.034Z,14.70
2022-11-22T09:33:08.587Z,11.80
2022-11-22T09:34:02.026Z,12.70
2022-11-22T09:35:02.000Z,12.90
2022-11-22T09:36:02.036Z,11.30
2022-11-22T09:37:01.985Z,9.80
2022-11-22T09:38:01.976Z,13.60
2022-11-22T09:39:01.947Z,12.00
2022-11-22T09:40:01.967Z,13.20
2022-11-22T09:41:01.932Z,11.10
2022-11-22T09:42:01.934Z,12.50
2022-11-22T09:43:01.927Z,12.90
2022-11-22T09:44:01.921Z,10.50
2022-11-22T09:45:01.897Z,10.60
2022-11-22T09:46:01.894Z,14.60
2022-11-22T09:47:01.862Z,10.00
2022-11-22T09:48:05.381Z,10.10
2022-11-22T09:49:01.854Z,14.10
2022-11-22T09:50:01.825Z,12.20
2022-11-22T09:51:01.825Z,10.10
2022-11-22T09:52:01.838Z,12.70
2022-11-22T09:53:01.791Z,16.80
2022-11-22T09:54:01.826Z,14.30
2022-11-22T09:55:01.766Z,22.40
2022-11-22T09:56:01.775Z,12.30
2022-11-22T09:57:01.742Z,14.20
2022-11-22T09:58:01.748Z,10.70
2022-11-22T09:59:01.725Z,12.00
2022-11-22T10:00:01.751Z,9.90
2022-11-22T10:01:01.729Z,7.10
2022-11-22T10:02:16.944Z,10.80
2022-11-22T10:03:01.685Z,9.70
2022-11-22T10:04:01.685Z,10.40
2022-11-22T10:05:01.676Z,7.40
2022-11-22T10:06:01.659Z,8.40
2022-11-22T10:07:01.670Z,6.20
2022-11-22T10:08:01.622Z,11.00
2022-11-22T10:09:01.624Z,10.40
2022-11-22T10:10:01.626Z,9.80
2022-11-22T10:11:01.595Z,9.90
2022-11-22T10:12:01.582Z,8.90
2022-11-22T10:13:01.569Z,7.80
2022-11-22T10:14:01.597Z,12.40
2022-11-22T10:15:01.563Z,8.60
2022-11-22T10:16:01.540Z,9.00
2022-11-22T10:17:01.523Z,12.10
2022-11-22T10:18:01.568Z,7.20
2022-11-22T10:19:01.512Z,14.30
2022-11-22T10:20:01.529Z,10.10
2022-11-22T10:21:01.480Z,8.00
2022-11-22T10:22:01.467Z,8.10
2022-11-22T10:23:01.465Z,10.60
2022-11-22T10:24:01.470Z,9.20
2022-11-22T10:25:01.514Z,8.00
2022-11-22T10:26:01.426Z,10.20
2022-11-22T10:27:01.413Z,12.70
2022-11-22T10:28:01.419Z,9.50
2022-11-22T10:29:01.402Z,6.40
2022-11-22T10:30:01.402Z,8.40
2022-11-22T10:31:01.364Z,11.40
2022-11-22T10:32:01.358Z,10.70
2022-11-22T10:33:08.897Z,10.50
2022-11-22T10:34:01.349Z,9.80
2022-11-22T10:35:01.369Z,9.90
2022-11-22T10:36:01.330Z,12.00
2022-11-22T10:37:01.339Z,10.00
2022-11-22T10:38:01.303Z,10.70
2022-11-22T10:39:01.287Z,10.90
2022-11-22T10:40:01.317Z,9.20
2022-11-22T10:41:01.274Z,12.60
2022-11-22T10:42:01.279Z,11.90
2022-11-22T10:43:01.353Z,8.50
2022-11-22T10:44:01.231Z,13.50
2022-11-22T10:45:01.219Z,11.70
2022-11-22T10:46:01.315Z,10.60
2022-11-22T10:47:01.211Z,11.60
2022-11-22T10:48:01.210Z,9.90
2022-11-22T10:49:01.207Z,8.90
2022-11-22T10:50:01.192Z,9.30
2022-11-22T10:51:01.165Z,11.90
2022-11-22T10:52:01.159Z,9.00
2022-11-22T10:53:01.127Z,10.70
2022-11-22T10:54:03.747Z,10.10
2022-11-22T10:55:01.110Z,10.30
2022-11-22T10:56:01.123Z,8.40
2022-11-22T10:57:01.132Z,8.60
2022-11-22T10:58:01.089Z,8.70
2022-11-22T10:59:01.066Z,9.00
2022-11-22T11:00:01.056Z,12.10
2022-11-22T11:01:01.169Z,8.70
2022-11-22T11:02:01.072Z,11.70
2022-11-22T11:03:01.244Z,9.90
2022-11-22T11:04:01.032Z,7.60
2022-11-22T11:05:00.994Z,10.10
2022-11-22T11:06:21.616Z,9.80
2022-11-22T11:07:16.403Z,8.60
2022-11-22T11:08:21.972Z,11.20
2022-11-22T11:10:11.188Z,10.20
2022-11-22T11:11:00.940Z,10.50
2022-11-22T11:12:00.934Z,11.10
2022-11-22T11:13:00.923Z,9.40
2022-11-22T11:14:00.932Z,8.30
2022-11-22T11:15:00.894Z,10.10
2022-11-22T11:16:00.894Z,10.10
2022-11-22T11:17:00.863Z,10.90
2022-11-22T11:18:00.873Z,9.30
2022-11-22T11:19:00.838Z,10.80
2022-11-22T11:20:00.836Z,9.40
2022-11-22T11:21:00.817Z,9.70
2022-11-22T11:22:00.825Z,9.30
2022-11-22T11:23:16.631Z,10.40
2022-11-22T11:24:00.813Z,10.20
2022-11-22T11:25:00.773Z,9.60
2022-11-22T11:26:00.776Z,6.80
2022-11-22T11:27:00.767Z,8.50
2022-11-22T11:28:00.775Z,9.60
2022-11-22T11:29:00.758Z,10.40
2022-11-22T11:30:00.749Z,11.90
2022-11-22T11:31:00.732Z,9.60
2022-11-22T11:32:00.733Z,6.90
2022-11-22T11:33:08.224Z,4.60
2022-11-22T11:34:00.697Z,5.20
2022-11-22T11:35:00.678Z,7.30
2022-11-22T11:36:00.655Z,7.90
2022-11-22T11:37:00.641Z,7.10
2022-11-22T11:38:00.633Z,5.10
2022-11-22T11:39:00.631Z,5.30
2022-11-22T11:40:00.650Z,6.70
2022-11-22T11:41:00.790Z,8.00
2022-11-22T11:42:00.594Z,7.40
2022-11-22T11:43:00.578Z,6.80
2022-11-22T11:44:00.579Z,9.80
2022-11-22T11:45:00.575Z,7.00
2022-11-22T11:46:00.575Z,9.70
2022-11-22T11:47:00.559Z,7.20
2022-11-22T11:48:00.527Z,7.10
2022-11-22T11:49:00.584Z,7.40
2022-11-22T11:50:00.508Z,5.90
2022-11-22T11:51:00.542Z,7.80
2022-11-22T11:52:00.505Z,5.20
2022-11-22T11:53:00.478Z,8.70
2022-11-22T11:54:00.475Z,7.50
2022-11-22T11:55:00.445Z,6.60
2022-11-22T11:56:00.431Z,7.90
2022-11-22T11:57:00.455Z,7.40
2022-11-22T11:58:00.435Z,4.70
2022-11-22T11:59:00.490Z,5.60
2022-11-22T12:00:00.399Z,6.50
2022-11-22T12:01:00.379Z,5.60
2022-11-22T12:02:00.437Z,6.40
2022-11-22T12:03:00.370Z,5.10
2022-11-22T12:04:00.372Z,8.00
2022-11-22T12:05:00.351Z,6.00
2022-11-22T12:06:00.340Z,6.60
2022-11-22T12:07:03.345Z,4.80
2022-11-22T12:08:00.536Z,8.00
2022-11-22T12:09:00.308Z,7.20
2022-11-22T12:10:00.313Z,9.00
2022-11-22T12:11:00.277Z,8.80
2022-11-22T12:12:00.291Z,7.30
2022-11-22T12:13:04.448Z,7.60
2022-11-22T12:15:15.239Z,6.50
2022-11-22T12:16:00.229Z,5.90
2022-11-22T12:17:00.219Z,4.90
2022-11-22T12:18:00.223Z,5.70
2022-11-22T12:19:00.201Z,8.10
2022-11-22T12:20:00.196Z,6.60
2022-11-22T12:21:00.167Z,7.20
2022-11-22T12:22:00.178Z,6.30
2022-11-22T12:23:00.185Z,7.70
2022-11-22T12:24:19.877Z,3.10
2022-11-22T12:25:30.538Z,6.90
2022-11-22T12:26:00.123Z,5.70
2022-11-22T12:27:00.113Z,5.50
2022-11-22T12:28:00.092Z,7.60
2022-11-22T12:29:00.107Z,6.60
2022-11-22T12:30:00.104Z,7.20
2022-11-22T12:31:00.052Z,6.00
2022-11-22T12:32:00.063Z,4.80
2022-11-22T12:33:07.566Z,7.40
2022-11-22T12:34:00.045Z,8.10
2022-11-22T12:35:00.024Z,6.00
2022-11-22T12:36:00.011Z,6.40
2022-11-22T12:36:59.987Z,6.40
2022-11-22T12:37:59.981Z,6.70
2022-11-22T12:38:59.989Z,6.60
2022-11-22T12:39:59.973Z,9.20
2022-11-22T12:40:59.978Z,4.90
2022-11-22T12:41:59.941Z,6.80
2022-11-22T12:42:59.920Z,6.50
2022-11-22T12:43:59.932Z,6.20
2022-11-22T12:44:59.912Z,6.40
2022-11-22T12:45:59.907Z,6.90
2022-11-22T12:46:59.878Z,9.40
2022-11-22T12:47:59.866Z,7.30
2022-11-22T12:48:59.875Z,7.40
2022-11-22T12:49:59.861Z,5.40
2022-11-22T12:50:59.863Z,9.20
2022-11-22T12:51:59.822Z,3.90
2022-11-22T12:52:59.808Z,6.00
2022-11-22T12:53:59.818Z,12.10
2022-11-22T12:54:59.797Z,12.20
2022-11-22T12:55:59.776Z,12.10
2022-11-22T12:56:59.813Z,7.80
2022-11-22T12:57:59.788Z,6.90
2022-11-22T12:58:59.775Z,7.90
2022-11-22T12:59:59.736Z,9.90
2022-11-22T13:00:59.766Z,13.80
2022-11-22T13:01:59.734Z,9.20
2022-11-22T13:02:59.698Z,11.70
2022-11-22T13:03:59.723Z,10.90
2022-11-22T13:04:59.738Z,15.20
2022-11-22T13:05:59.767Z,9.50